createdAt,value
2022-10-08T00:01:10.342Z,0.50
2022-10-08T00:03:40.850Z,0.50
2022-10-08T00:06:11.985Z,0.77
2022-10-08T00:08:41.947Z,1.33
2022-10-08T00:11:12.371Z,0.70
2022-10-08T00:13:41.462Z,0.70
2022-10-08T00:16:15.426Z,0.65
2022-10-08T00:18:44.319Z,0.57
2022-10-08T00:21:22.877Z,1.00
2022-10-08T00:23:50.946Z,0.70
2022-10-08T00:26:20.973Z,0.80
2022-10-08T00:28:47.944Z,0.85
2022-10-08T00:31:18.108Z,1.25
2022-10-08T00:33:44.867Z,0.82
2022-10-08T00:36:13.086Z,0.90
2022-10-08T00:38:40.716Z,0.65
2022-10-08T00:41:15.124Z,0.70
2022-10-08T00:43:51.720Z,1.25
2022-10-08T00:46:44.125Z,0.80
2022-10-08T00:49:13.575Z,0.85
2022-10-08T00:51:45.799Z,1.35
2022-10-08T00:54:13.577Z,0.60
2022-10-08T00:56:41.328Z,0.80
2022-10-08T00:59:10.659Z,0.95
2022-10-08T01:01:37.859Z,0.80
2022-10-08T01:04:07.328Z,1.23
2022-10-08T01:07:03.481Z,0.75
2022-10-08T01:09:32.903Z,1.13
2022-10-08T01:12:08.278Z,0.63
2022-10-08T01:14:58.212Z,0.57
2022-10-08T01:17:54.360Z,1.40
2022-10-08T01:21:05.171Z,1.15
2022-10-08T01:24:04.191Z,1.73
2022-10-08T01:26:39.993Z,0.85
2022-10-08T01:29:18.393Z,1.38
2022-10-08T01:31:50.736Z,1.10
2022-10-08T01:34:46.989Z,1.38
2022-10-08T01:37:36.566Z,1.05
2022-10-08T01:40:09.493Z,1.80
2022-10-08T01:42:40.014Z,1.00
2022-10-08T01:45:15.257Z,1.17
2022-10-08T01:47:44.354Z,1.13
2022-10-08T01:50:28.239Z,1.02
2022-10-08T01:53:02.986Z,0.90
2022-10-08T01:55:41.605Z,0.57
2022-10-08T01:58:16.013Z,1.05
2022-10-08T02:00:43.180Z,1.10
2022-10-08T02:03:13.447Z,0.73
2022-10-08T02:05:45.459Z,0.60
2022-10-08T02:08:12.195Z,0.82
2022-10-08T02:10:39.124Z,0.77
2022-10-08T02:13:06.031Z,0.63
2022-10-08T02:15:55.959Z,1.05
2022-10-08T02:18:41.958Z,1.02
2022-10-08T02:21:19.442Z,1.23
2022-10-08T02:24:26.885Z,1.00
2022-10-08T02:26:57.350Z,0.95
2022-10-08T02:29:32.874Z,0.63
2022-10-08T02:32:18.298Z,0.90
2022-10-08T02:34:59.952Z,1.40
2022-10-08T02:37:37.659Z,0.73
2022-10-08T02:40:10.053Z,0.50
2022-10-08T02:42:42.532Z,0.90
2022-10-08T02:45:22.268Z,0.70
2022-10-08T02:47:53.694Z,0.60
2022-10-08T02:52:51.568Z,1.10
2022-10-08T02:55:29.530Z,1.30
2022-10-08T02:58:09.788Z,0.85
2022-10-08T03:00:43.249Z,0.82
2022-10-08T03:03:15.025Z,0.90
2022-10-08T03:05:42.862Z,1.17
2022-10-08T03:08:12.887Z,1.33
2022-10-08T03:10:41.376Z,1.13
2022-10-08T03:13:09.599Z,0.82
2022-10-08T03:15:38.064Z,1.33
2022-10-08T03:18:09.140Z,1.13
2022-10-08T03:20:55.885Z,0.80
2022-10-08T03:23:24.169Z,1.00
2022-10-08T03:25:50.817Z,0.90
2022-10-08T03:28:17.517Z,0.70
2022-10-08T03:30:44.239Z,0.95
2022-10-08T03:33:11.073Z,1.05
2022-10-08T03:35:37.758Z,1.10
2022-10-08T03:38:04.468Z,0.80
2022-10-08T03:40:31.063Z,1.17
2022-10-08T03:42:57.826Z,0.93
2022-10-08T03:45:24.466Z,1.35
2022-10-08T03:47:52.456Z,1.00
2022-10-08T03:50:21.222Z,0.68
2022-10-08T03:52:48.635Z,0.70
2022-10-08T03:55:15.582Z,1.05
2022-10-08T03:57:42.421Z,0.60
2022-10-08T04:00:10.116Z,1.08
2022-10-08T04:02:36.984Z,1.27
2022-10-08T04:05:03.881Z,0.80
2022-10-08T04:07:30.570Z,0.93
2022-10-08T04:09:57.223Z,0.50
2022-10-08T04:12:23.889Z,0.65
2022-10-08T04:14:50.535Z,1.40
2022-10-08T04:17:17.260Z,0.52
2022-10-08T04:19:43.913Z,0.70
2022-10-08T04:22:10.624Z,0.80
2022-10-08T04:24:37.261Z,0.60
2022-10-08T04:27:04.089Z,0.98
2022-10-08T04:29:30.781Z,1.38
2022-10-08T04:31:58.497Z,0.93
2022-10-08T04:34:25.179Z,0.88
2022-10-08T04:36:51.947Z,0.50
2022-10-08T04:39:18.591Z,0.52
2022-10-08T04:41:45.289Z,0.50
2022-10-08T04:44:11.964Z,0.68
2022-10-08T04:46:38.739Z,0.80
2022-10-08T04:49:05.410Z,0.40
2022-10-08T04:51:32.081Z,0.80
2022-10-08T04:53:58.789Z,1.02
2022-10-08T04:56:28.169Z,1.05
2022-10-08T04:58:55.619Z,0.60
2022-10-08T05:01:23.582Z,0.57
2022-10-08T05:03:53.135Z,0.50
2022-10-08T05:06:22.914Z,0.88
2022-10-08T05:08:50.051Z,0.70
2022-10-08T05:11:18.087Z,0.73
2022-10-08T05:13:50.345Z,0.70
2022-10-08T05:16:19.908Z,0.77
2022-10-08T05:18:47.725Z,0.45
2022-10-08T05:21:16.461Z,0.40
2022-10-08T05:23:43.884Z,0.60
2022-10-08T05:26:28.770Z,0.65
2022-10-08T05:29:08.146Z,0.55
2022-10-08T05:31:37.250Z,0.80
2022-10-08T05:34:04.413Z,0.77
2022-10-08T05:36:33.314Z,1.13
2022-10-08T05:39:01.381Z,0.65
2022-10-08T05:41:30.390Z,0.75
2022-10-08T05:43:58.841Z,0.60
2022-10-08T05:46:28.591Z,0.77
2022-10-08T05:48:57.571Z,0.90
2022-10-08T05:51:24.294Z,0.98
2022-10-08T05:53:52.607Z,1.30
2022-10-08T05:56:22.714Z,1.02
2022-10-08T05:58:50.343Z,0.90
2022-10-08T06:01:28.072Z,0.82
2022-10-08T06:04:05.685Z,1.13
2022-10-08T06:06:36.599Z,0.70
2022-10-08T06:09:03.967Z,0.43
2022-10-08T06:11:34.072Z,1.15
2022-10-08T06:14:02.053Z,0.68
2022-10-08T06:16:30.108Z,0.80
2022-10-08T06:18:57.007Z,1.13
2022-10-08T06:21:26.604Z,0.75
2022-10-08T06:23:56.295Z,1.05
2022-10-08T06:26:27.357Z,1.00
2022-10-08T06:28:56.482Z,1.35
2022-10-08T06:31:23.206Z,0.80
2022-10-08T06:33:50.493Z,0.80
2022-10-08T06:36:20.379Z,0.88
2022-10-08T06:38:51.168Z,1.33
2022-10-08T06:41:18.652Z,1.15
2022-10-08T06:43:45.848Z,0.82
2022-10-08T06:46:12.876Z,1.00
2022-10-08T06:48:51.417Z,0.63
2022-10-08T06:51:19.084Z,0.80
2022-10-08T06:53:52.391Z,0.88
2022-10-08T06:56:19.087Z,0.95
2022-10-08T06:58:47.532Z,1.17
2022-10-08T07:01:17.952Z,0.80
2022-10-08T07:03:58.239Z,0.83
2022-10-08T07:06:25.805Z,1.00
2022-10-08T07:08:54.911Z,0.85
2022-10-08T07:11:22.669Z,0.60
2022-10-08T07:13:49.348Z,0.75
2022-10-08T07:16:21.642Z,1.10
2022-10-08T07:18:50.620Z,1.40
2022-10-08T07:21:19.641Z,0.57
2022-10-08T07:23:46.561Z,0.82
2022-10-08T07:26:16.206Z,1.00
2022-10-08T07:28:48.758Z,0.95
2022-10-08T07:31:19.019Z,0.93
2022-10-08T07:33:45.868Z,1.00
2022-10-08T07:36:14.899Z,1.00
2022-10-08T07:38:41.831Z,0.90
2022-10-08T07:41:10.065Z,0.80
2022-10-08T07:43:37.689Z,1.30
2022-10-08T07:46:05.903Z,0.85
2022-10-08T07:48:34.275Z,0.77
2022-10-08T07:51:15.676Z,0.70
2022-10-08T07:53:43.631Z,1.17
2022-10-08T07:56:12.792Z,0.90
2022-10-08T07:58:40.417Z,0.98
2022-10-08T08:01:10.470Z,1.80
2022-10-08T08:03:37.595Z,1.08
2022-10-08T08:06:06.044Z,0.98
2022-10-08T08:08:34.963Z,0.80
2022-10-08T08:11:03.263Z,1.25
2022-10-08T08:13:36.797Z,0.73
2022-10-08T08:16:18.183Z,1.30
2022-10-08T08:18:48.246Z,0.60
2022-10-08T08:21:27.066Z,0.43
2022-10-08T08:23:56.464Z,0.82
2022-10-08T08:26:29.213Z,1.13
2022-10-08T08:28:58.791Z,0.50
2022-10-08T08:31:29.243Z,1.00
2022-10-08T08:33:59.853Z,0.80
2022-10-08T08:36:29.613Z,0.63
2022-10-08T08:38:57.027Z,1.27
2022-10-08T08:41:44.851Z,0.90
2022-10-08T08:44:18.693Z,0.77
2022-10-08T08:46:52.886Z,1.30
2022-10-08T08:49:44.218Z,0.93
2022-10-08T08:52:17.876Z,1.00
2022-10-08T08:54:49.606Z,0.95
2022-10-08T08:57:34.673Z,1.13
2022-10-08T09:00:19.840Z,0.70
2022-10-08T09:02:57.906Z,0.95
2022-10-08T09:05:26.734Z,0.65
2022-10-08T09:08:02.686Z,0.57
2022-10-08T09:10:42.887Z,0.70
2022-10-08T09:13:22.186Z,0.60
2022-10-08T09:15:48.918Z,0.60
2022-10-08T09:18:16.733Z,0.90
2022-10-08T09:20:44.444Z,0.80
2022-10-08T09:23:22.778Z,0.88
2022-10-08T09:25:55.890Z,0.60
2022-10-08T09:28:50.445Z,1.15
2022-10-08T09:31:32.576Z,0.63
2022-10-08T09:34:15.650Z,0.77
2022-10-08T09:36:52.531Z,0.60
2022-10-08T09:39:20.754Z,0.50
2022-10-08T09:42:04.569Z,0.52
2022-10-08T09:44:44.876Z,0.60
2022-10-08T09:47:16.465Z,1.15
2022-10-08T09:49:45.309Z,0.80
2022-10-08T09:52:17.607Z,0.85
2022-10-08T09:54:49.006Z,0.70
2022-10-08T09:57:21.403Z,0.98
2022-10-08T09:59:54.909Z,0.77
2022-10-08T10:02:35.384Z,0.60
2022-10-08T10:05:05.589Z,1.90
2022-10-08T10:07:42.075Z,1.52
2022-10-08T10:10:17.937Z,0.73
2022-10-08T10:12:50.284Z,0.60
2022-10-08T10:15:30.100Z,0.50
2022-10-08T10:18:02.248Z,0.47
2022-10-08T10:20:38.152Z,0.50
2022-10-08T10:23:30.798Z,0.40
2022-10-08T10:26:07.705Z,0.57
2022-10-08T10:28:52.971Z,0.32
2022-10-08T10:31:25.904Z,0.20
2022-10-08T10:34:04.341Z,0.70
2022-10-08T10:36:43.813Z,0.40
2022-10-08T10:39:29.246Z,0.73
2022-10-08T10:41:59.860Z,0.30
2022-10-08T10:44:35.426Z,0.20
2022-10-08T10:47:04.036Z,0.40
2022-10-08T10:49:40.540Z,0.30
2022-10-08T10:52:49.218Z,0.30
2022-10-08T10:55:21.894Z,0.20
2022-10-08T10:58:22.498Z,0.73
2022-10-08T11:01:07.619Z,0.60
2022-10-08T11:04:02.435Z,0.32
2022-10-08T11:06:48.388Z,0.60
2022-10-08T11:09:40.976Z,0.28
2022-10-08T11:12:30.925Z,0.30
2022-10-08T11:15:35.111Z,0.20
2022-10-08T11:18:25.407Z,0.30
2022-10-08T11:21:05.360Z,0.20
2022-10-08T11:23:54.719Z,0.10
2022-10-08T11:26:36.681Z,0.22
2022-10-08T11:29:15.756Z,0.20
2022-10-08T11:31:45.369Z,0.32
2022-10-08T11:34:36.116Z,0.20
2022-10-08T11:37:21.705Z,0.20
2022-10-08T11:39:54.378Z,0.20
2022-10-08T11:42:30.212Z,0.20
2022-10-08T11:45:33.745Z,0.40
2022-10-08T11:48:21.088Z,0.22
2022-10-08T11:50:47.937Z,0.38
2022-10-08T11:53:21.017Z,0.40
2022-10-08T11:55:57.287Z,0.50
2022-10-08T11:58:30.959Z,0.60
2022-10-08T12:01:08.983Z,0.30
2022-10-08T12:03:42.983Z,0.25
2022-10-08T12:06:34.650Z,0.30
2022-10-08T12:11:32.488Z,0.60
2022-10-08T12:14:11.474Z,0.28
2022-10-08T12:16:47.429Z,0.30
2022-10-08T12:19:32.939Z,0.35
2022-10-08T12:22:03.486Z,0.40
2022-10-08T12:24:39.340Z,0.47
2022-10-08T12:27:18.432Z,0.40
2022-10-08T12:29:58.850Z,0.32
2022-10-08T12:32:28.249Z,0.50
2022-10-08T12:34:56.185Z,0.40
2022-10-08T12:37:49.720Z,0.45
2022-10-08T12:40:31.479Z,0.50
2022-10-08T12:45:54.771Z,0.30
2022-10-08T12:48:49.316Z,0.40
2022-10-08T12:51:45.532Z,0.20
2022-10-08T12:54:31.574Z,0.20
2022-10-08T12:56:59.779Z,0.38
2022-10-08T12:59:32.049Z,0.50
2022-10-08T13:01:58.947Z,0.30
2022-10-08T13:04:29.958Z,0.20
2022-10-08T13:06:56.828Z,0.40
2022-10-08T13:09:27.764Z,0.20
2022-10-08T13:12:02.118Z,0.30
2022-10-08T13:14:36.080Z,0.30
2022-10-08T13:17:03.935Z,0.20
2022-10-08T13:19:38.970Z,0.30
2022-10-08T13:22:26.121Z,0.30
2022-10-08T13:24:52.985Z,0.28
2022-10-08T13:27:27.225Z,0.30
2022-10-08T13:29:55.543Z,0.30
2022-10-08T13:32:25.887Z,0.30
2022-10-08T13:34:58.818Z,0.30
2022-10-08T13:37:36.277Z,0.25
2022-10-08T13:40:12.498Z,0.22
2022-10-08T13:42:49.001Z,0.20
2022-10-08T13:45:27.773Z,0.30
2022-10-08T13:47:55.090Z,0.30
2022-10-08T13:50:23.049Z,0.20
2022-10-08T13:52:54.695Z,0.13
2022-10-08T13:55:26.779Z,0.28
2022-10-08T13:57:54.638Z,0.30
2022-10-08T14:00:22.649Z,0.20
2022-10-08T14:02:51.746Z,0.10
2022-10-08T14:05:19.726Z,0.10
2022-10-08T14:07:50.903Z,0.00
2022-10-08T14:10:19.027Z,0.10
2022-10-08T14:12:46.016Z,0.22
2022-10-08T14:15:14.128Z,0.10
2022-10-08T14:17:40.907Z,0.10
2022-10-08T14:20:09.313Z,0.13
2022-10-08T14:22:39.225Z,0.10
2022-10-08T14:25:17.943Z,0.20
2022-10-08T14:27:45.269Z,0.10
2022-10-08T14:30:13.839Z,0.20
2022-10-08T14:32:40.892Z,0.20
2022-10-08T14:35:08.156Z,0.30
2022-10-08T14:37:35.479Z,0.10
2022-10-08T14:40:03.971Z,0.43
2022-10-08T14:42:30.756Z,0.40
2022-10-08T14:44:57.464Z,0.28
2022-10-08T14:47:24.270Z,0.22
2022-10-08T14:49:51.009Z,0.30
2022-10-08T14:52:17.870Z,0.25
2022-10-08T14:54:44.558Z,0.30
2022-10-08T14:57:11.259Z,0.60
2022-10-08T14:59:40.231Z,0.40
2022-10-08T15:02:10.468Z,0.20
2022-10-08T15:04:37.350Z,0.30
2022-10-08T15:07:04.406Z,0.20
2022-10-08T15:09:31.550Z,0.20
2022-10-08T15:11:58.472Z,0.22
2022-10-08T15:14:58.688Z,0.50
2022-10-08T15:17:25.502Z,0.55
2022-10-08T15:19:53.002Z,0.60
2022-10-08T15:22:19.663Z,0.90
2022-10-08T15:24:46.313Z,1.10
2022-10-08T15:27:15.248Z,0.68
2022-10-08T15:29:45.235Z,0.63
2022-10-08T15:32:12.200Z,0.95
2022-10-08T15:34:39.042Z,0.30
2022-10-08T15:37:08.008Z,0.30
2022-10-08T15:39:36.035Z,0.50
2022-10-08T15:42:02.991Z,0.40
2022-10-08T15:44:31.225Z,0.50
2022-10-08T15:47:06.688Z,0.50
2022-10-08T15:49:37.726Z,0.65
2022-10-08T15:52:09.398Z,0.55
2022-10-08T15:54:40.516Z,0.40
2022-10-08T15:57:09.562Z,0.45
2022-10-08T15:59:36.665Z,0.28
2022-10-08T16:02:04.441Z,0.28
2022-10-08T16:04:31.276Z,0.40
2022-10-08T16:06:58.489Z,0.50
2022-10-08T16:09:25.499Z,0.25
2022-10-08T16:11:52.209Z,0.50
2022-10-08T16:14:24.662Z,0.40
2022-10-08T16:16:51.991Z,0.50
2022-10-08T16:19:21.478Z,0.57
2022-10-08T16:21:50.109Z,0.77
2022-10-08T16:24:17.512Z,0.10
2022-10-08T16:26:45.225Z,1.23
2022-10-08T16:29:13.751Z,0.82
2022-10-08T16:31:42.247Z,0.50
2022-10-08T16:34:14.348Z,0.50
2022-10-08T16:36:41.687Z,0.50
2022-10-08T16:39:09.026Z,0.55
2022-10-08T16:41:37.441Z,0.45
2022-10-08T16:44:12.775Z,0.30
2022-10-08T16:46:43.124Z,0.38
2022-10-08T16:49:22.696Z,0.40
2022-10-08T16:51:52.900Z,0.40
2022-10-08T16:54:19.747Z,0.30
2022-10-08T16:56:46.901Z,0.47
2022-10-08T16:59:19.410Z,0.70
2022-10-08T17:01:49.588Z,0.88
2022-10-08T17:04:17.503Z,1.27
2022-10-08T17:06:44.334Z,1.50
2022-10-08T17:09:11.679Z,1.98
2022-10-08T17:11:39.275Z,1.63
2022-10-08T17:14:07.711Z,1.40
2022-10-08T17:16:35.967Z,2.22
2022-10-08T17:19:04.374Z,2.35
2022-10-08T17:21:34.748Z,2.05
2022-10-08T17:24:02.842Z,2.35
2022-10-08T17:26:30.926Z,2.03
2022-10-08T17:29:01.647Z,1.95
2022-10-08T17:31:31.907Z,1.77
2022-10-08T17:34:02.801Z,1.50
2022-10-08T17:36:35.688Z,1.92
2022-10-08T17:39:05.431Z,1.70
2022-10-08T17:41:37.021Z,1.83
2022-10-08T17:44:06.934Z,1.48
2022-10-08T17:46:36.437Z,1.80
2022-10-08T17:49:03.646Z,1.60
2022-10-08T17:51:31.323Z,1.40
2022-10-08T17:54:04.212Z,1.45
2022-10-08T17:56:31.812Z,1.27
2022-10-08T17:58:58.958Z,1.70
2022-10-08T18:01:28.354Z,1.83
2022-10-08T18:04:03.589Z,1.88
2022-10-08T18:06:31.748Z,1.48
2022-10-08T18:09:01.635Z,1.92
2022-10-08T18:11:30.349Z,1.67
2022-10-08T18:13:57.117Z,1.23
2022-10-08T18:16:25.300Z,2.00
2022-10-08T18:18:52.289Z,1.40
2022-10-08T18:21:20.176Z,1.35
2022-10-08T18:23:48.960Z,1.38
2022-10-08T18:26:24.252Z,1.15
2022-10-08T18:28:55.807Z,1.30
2022-10-08T18:31:28.699Z,1.08
2022-10-08T18:34:02.629Z,1.05
2022-10-08T18:36:31.942Z,0.90
2022-10-08T18:38:59.807Z,1.10
2022-10-08T18:41:29.718Z,1.00
2022-10-08T18:43:59.402Z,1.08
2022-10-08T18:46:27.749Z,1.00
2022-10-08T18:48:55.156Z,0.70
2022-10-08T18:51:24.719Z,1.13
2022-10-08T18:53:52.907Z,0.65
2022-10-08T18:56:22.033Z,0.68
2022-10-08T18:58:50.648Z,0.70
2022-10-08T19:01:28.307Z,0.52
2022-10-08T19:03:58.011Z,0.52
2022-10-08T19:06:27.822Z,0.85
2022-10-08T19:08:55.933Z,0.60
2022-10-08T19:11:30.187Z,0.90
2022-10-08T19:13:56.859Z,0.98
2022-10-08T19:16:23.717Z,0.95
2022-10-08T19:18:53.477Z,0.90
2022-10-08T19:21:20.767Z,0.40
2022-10-08T19:23:47.731Z,0.55
2022-10-08T19:26:15.187Z,0.60
2022-10-08T19:28:50.104Z,0.45
2022-10-08T19:31:24.239Z,0.60
2022-10-08T19:33:56.101Z,0.70
2022-10-08T19:36:24.900Z,0.80
2022-10-08T19:38:53.193Z,0.80
2022-10-08T19:41:20.664Z,1.20
2022-10-08T19:43:47.825Z,1.02
2022-10-08T19:46:14.738Z,0.70
2022-10-08T19:48:41.542Z,0.80
2022-10-08T19:51:10.954Z,1.00
2022-10-08T19:53:38.617Z,1.27
2022-10-08T19:56:10.021Z,1.13
2022-10-08T20:01:09.778Z,1.10
2022-10-08T20:03:37.136Z,0.80
2022-10-08T20:06:09.494Z,1.00
2022-10-08T20:08:36.947Z,1.27
2022-10-08T20:11:08.794Z,0.93
2022-10-08T20:13:36.210Z,0.95
2022-10-08T20:16:12.984Z,0.98
2022-10-08T20:18:39.866Z,0.93
2022-10-08T20:21:09.690Z,1.08
2022-10-08T20:23:37.899Z,0.60
2022-10-08T20:26:26.106Z,0.73
2022-10-08T20:29:04.245Z,0.60
2022-10-08T20:31:33.206Z,0.70
2022-10-08T20:34:08.493Z,0.80
2022-10-08T20:36:35.302Z,0.70
2022-10-08T20:39:02.087Z,0.90
2022-10-08T20:41:31.100Z,1.02
2022-10-08T20:44:03.210Z,0.68
2022-10-08T20:46:31.272Z,0.82
2022-10-08T20:48:58.525Z,1.30
2022-10-08T20:51:27.071Z,1.20
2022-10-08T20:53:53.660Z,1.88
2022-10-08T20:56:21.966Z,1.67
2022-10-08T20:58:49.630Z,1.40
2022-10-08T21:01:19.811Z,1.50
2022-10-08T21:03:47.484Z,1.20
2022-10-08T21:06:20.161Z,1.48
2022-10-08T21:08:48.957Z,0.70
2022-10-08T21:11:21.436Z,1.10
2022-10-08T21:13:48.473Z,1.15
2022-10-08T21:16:21.634Z,1.00
2022-10-08T21:18:49.604Z,1.17
2022-10-08T21:21:16.794Z,1.23
2022-10-08T21:23:43.885Z,1.00
2022-10-08T21:26:19.294Z,2.15
2022-10-08T21:28:47.987Z,0.95
2022-10-08T21:31:15.961Z,1.20
2022-10-08T21:33:45.246Z,0.93
2022-10-08T21:36:14.972Z,1.63
2022-10-08T21:38:42.595Z,1.35
2022-10-08T21:41:12.506Z,1.10
2022-10-08T21:43:50.899Z,1.63
2022-10-08T21:46:23.369Z,1.42
2022-10-08T21:48:58.729Z,0.90
2022-10-08T21:51:26.641Z,1.40
2022-10-08T21:53:56.070Z,1.30
2022-10-08T21:56:25.806Z,1.55
2022-10-08T21:58:58.264Z,1.17
2022-10-08T22:01:29.752Z,0.90
2022-10-08T22:04:11.005Z,1.20
2022-10-08T22:06:41.251Z,1.27
2022-10-08T22:09:12.246Z,1.52
2022-10-08T22:11:39.645Z,1.08
2022-10-08T22:14:07.040Z,0.88
2022-10-08T22:16:34.187Z,0.98
2022-10-08T22:19:01.268Z,1.73
2022-10-08T22:24:17.861Z,1.38
2022-10-08T22:26:50.523Z,1.65
2022-10-08T22:29:17.362Z,1.20
2022-10-08T22:31:44.404Z,1.15
2022-10-08T22:34:11.271Z,1.13
2022-10-08T22:36:44.545Z,1.23
2022-10-08T22:39:11.857Z,1.40
2022-10-08T22:41:38.679Z,1.25
2022-10-08T22:44:05.870Z,1.00
2022-10-08T22:46:41.171Z,1.10
2022-10-08T22:49:10.436Z,1.30
2022-10-08T22:51:38.982Z,1.63
2022-10-08T22:54:05.785Z,0.73
2022-10-08T22:56:32.822Z,0.93
2022-10-08T22:59:00.525Z,0.80
2022-10-08T23:01:29.422Z,1.35
2022-10-08T23:03:56.653Z,1.55
2022-10-08T23:06:25.988Z,1.20
2022-10-08T23:09:01.598Z,0.90
2022-10-08T23:11:29.538Z,1.25
2022-10-08T23:13:57.964Z,0.95
2022-10-08T23:16:26.430Z,1.02
2022-10-08T23:18:56.619Z,0.93
2022-10-08T23:21:24.016Z,1.55
2022-10-08T23:23:54.437Z,1.10
2022-10-08T23:26:24.674Z,0.88
2022-10-08T23:28:53.278Z,1.38
2022-10-08T23:31:22.887Z,1.40
2022-10-08T23:33:51.667Z,1.27
2022-10-08T23:36:21.571Z,1.13
2022-10-08T23:38:48.681Z,0.93
2022-10-08T23:41:15.441Z,0.95
2022-10-08T23:43:44.183Z,1.70
2022-10-08T23:46:12.534Z,1.02
2022-10-08T23:48:39.748Z,0.82
2022-10-08T23:51:07.735Z,1.35
2022-10-08T23:53:34.993Z,1.08
2022-10-08T23:56:02.416Z,1.65
2022-10-08T23:58:29.185Z,1.50
